| time (UTC) | temp C | wind direction | speed KPH | gust KPH | rain 1hr cm | rain 24hr cm | rain mn cm | humidity % | barometer mb |
| 20260504081905 | 8 | 208 | 1.6 | 12.9 | 0.00 | 0.00 | 0.00 | 77 | 1007.5 |
| 20260504081541 | 8 | 209 | 3.2 | 14.5 | 0.00 | 0.00 | 0.00 | 76 | 1007.6 |
| 20260504081405 | 9 | 203 | 6.4 | 12.9 | 0.00 | 0.00 | 0.00 | 76 | 1007.5 |
| 20260504081022 | 8 | 206 | 8.0 | 14.5 | 0.00 | 0.00 | 0.00 | 75 | 1007.6 |
| 20260504080904 | 9 | 207 | 6.4 | 12.9 | 0.00 | 0.00 | 0.00 | 75 | 1007.6 |
| 20260504080522 | 8 | 184 | 8.0 | 14.5 | 0.00 | 0.00 | 0.00 | 74 | 1007.7 |
| 20260504080405 | 9 | 180 | 4.8 | 11.3 | 0.00 | 0.00 | 0.00 | 74 | 1007.6 |
| 20260504070357 | 9 | 171 | 19.3 | 27.4 | 0.00 | 0.00 | 0.00 | 69 | 1007.6 |
| 20260504050522 | 9 | 166 | 12.9 | 19.3 | 0.00 | 0.00 | 0.00 | 62 | 1008.3 |
| 20260504050343 | 9 | 181 | 11.3 | 19.3 | 0.00 | 0.00 | 0.00 | 63 | 1008.0 |
| 20260504045840 | 9 | 191 | 14.5 | 19.3 | 0.00 | 0.00 | 0.00 | 61 | 1008.0 |
| 20260504045521 | 9 | 176 | 14.5 | 20.9 | 0.00 | 0.00 | 0.00 | 60 | 1008.2 |
| 20260504045339 | 9 | 168 | 12.9 | 20.9 | 0.00 | 0.00 | 0.00 | 61 | 1008.0 |
| 20260504045023 | 9 | 172 | 12.9 | 22.5 | 0.00 | 0.00 | 0.00 | 58 | 1008.2 |
| 20260504044836 | 10 | 191 | 14.5 | 20.9 | 0.00 | 0.00 | 0.00 | 59 | 1008.1 |
| 20260504044536 | 9 | 177 | 16.1 | 22.5 | 0.00 | 0.00 | 0.00 | 57 | 1008.4 |
| 20260504044338 | 9 | 181 | 16.1 | 20.9 | 0.00 | 0.00 | 0.00 | 58 | 1008.2 |
| 20260504044023 | 9 | 176 | 11.3 | 19.3 | 0.00 | 0.00 | 0.00 | 57 | 1008.4 |
| 20260504043852 | 9 | 187 | 11.3 | 17.7 | 0.00 | 0.00 | 0.00 | 56 | 1008.3 |
| 20260504043523 | 9 | 191 | 12.9 | 17.7 | 0.00 | 0.00 | 0.00 | 56 | 1008.3 |
| 20260504043335 | 10 | 193 | 12.9 | 17.7 | 0.00 | 0.00 | 0.00 | 57 | 1008.2 |
| 20260504043035 | 9 | 184 | 11.3 | 19.3 | 0.00 | 0.00 | 0.00 | 56 | 1008.3 |
| 20260504042835 | 10 | 197 | 12.9 | 17.7 | 0.00 | 0.00 | 0.00 | 57 | 1008.1 |
| 20260504042523 | 9 | 183 | 11.3 | 19.3 | 0.00 | 0.00 | 0.00 | 55 | 1008.3 |
| 20260504042334 | 9 | 176 | 14.5 | 17.7 | 0.00 | 0.00 | 0.00 | 54 | 1008.2 |
| 20260504042023 | 9 | 203 | 11.3 | 17.7 | 0.00 | 0.00 | 0.00 | 53 | 1008.3 |
| 20260504041833 | 10 | 222 | 12.9 | 17.7 | 0.00 | 0.00 | 0.00 | 54 | 1008.2 |
| 20260504041544 | 9 | 204 | 11.3 | 25.7 | 0.00 | 0.00 | 0.00 | 53 | 1008.3 |
| 20260504041333 | 10 | 211 | 11.3 | 22.5 | 0.00 | 0.00 | 0.00 | 52 | 1008.3 |
| 20260504041023 | 9 | 251 | 11.3 | 25.7 | 0.00 | 0.00 | 0.00 | 51 | 1008.3 |
| 20260504040522 | 9 | 295 | 12.9 | 24.1 | 0.00 | 0.00 | 0.00 | 50 | 1008.3 |
| 20260504040332 | 10 | 239 | 11.3 | 20.9 | 0.00 | 0.00 | 0.00 | 51 | 1008.2 |
| 20260504040042 | 9 | 242 | 11.3 | 20.9 | 0.00 | 0.00 | 0.00 | 51 | 1008.2 |
| 20260504035832 | 10 | 287 | 9.7 | 20.9 | 0.00 | 0.00 | 0.00 | 50 | 1008.2 |
| 20260504035522 | 9 | 275 | 9.7 | 24.1 | 0.00 | 0.00 | 0.00 | 49 | 1008.3 |
| 20260504035329 | 10 | 263 | 11.3 | 22.5 | 0.00 | 0.00 | 0.00 | 49 | 1008.2 |
| 20260504035023 | 10 | 245 | 8.0 | 25.7 | 0.00 | 0.00 | 0.00 | 48 | 1008.4 |
| 20260504034829 | 10 | 247 | 11.3 | 24.1 | 0.00 | 0.00 | 0.00 | 50 | 1008.2 |
| 20260504034545 | 10 | 204 | 12.9 | 25.7 | 0.00 | 0.00 | 0.00 | 48 | 1008.5 |
| 20260504034330 | 10 | 248 | 14.5 | 24.1 | 0.00 | 0.00 | 0.00 | 49 | 1008.4 |
| 20260504034022 | 10 | 249 | 9.7 | 19.3 | 0.00 | 0.00 | 0.00 | 48 | 1008.6 |
| 20260504033842 | 10 | 239 | 12.9 | 19.3 | 0.00 | 0.00 | 0.00 | 48 | 1008.5 |
| 20260504033525 | 10 | 247 | 11.3 | 22.5 | 0.00 | 0.00 | 0.00 | 47 | 1008.6 |
| 20260504033329 | 10 | 237 | 11.3 | 22.5 | 0.00 | 0.00 | 0.00 | 48 | 1008.4 |
| 20260504033036 | 9 | 241 | 14.5 | 29.0 | 0.00 | 0.00 | 0.00 | 47 | 1008.5 |
| 20260504032829 | 10 | 225 | 14.5 | 29.0 | 0.00 | 0.00 | 0.00 | 49 | 1008.3 |
| 20260504032525 | 9 | 254 | 16.1 | 29.0 | 0.00 | 0.00 | 0.00 | 48 | 1008.4 |
| 20260504032024 | 9 | 249 | 16.1 | 29.0 | 0.00 | 0.00 | 0.00 | 49 | 1008.3 |
| 20260504031536 | 8 | 218 | 17.7 | 29.0 | 0.00 | 0.00 | 0.00 | 50 | 1008.4 |
| 20260504031022 | 7 | 239 | 9.7 | 20.9 | 0.00 | 0.00 | 0.00 | 52 | 1008.3 |
| 20260504030830 | 8 | 258 | 9.7 | 14.5 | 0.00 | 0.00 | 0.00 | 52 | 1008.3 |
| 20260504030522 | 7 | 249 | 8.0 | 14.5 | 0.00 | 0.00 | 0.00 | 52 | 1008.4 |
| 20260504030330 | 8 | 234 | 8.0 | 12.9 | 0.00 | 0.00 | 0.00 | 53 | 1008.2 |
| 20260504030041 | 7 | 251 | 6.4 | 12.9 | 0.00 | 0.00 | 0.00 | 52 | 1008.4 |
| 20260504025829 | 7 | 256 | 8.0 | 12.9 | 0.00 | 0.00 | 0.00 | 53 | 1008.2 |
| 20260504025523 | 7 | 228 | 6.4 | 12.9 | 0.00 | 0.00 | 0.00 | 52 | 1008.3 |
| 20260504025330 | 7 | 251 | 4.8 | 9.7 | 0.00 | 0.00 | 0.00 | 54 | 1008.2 |
| 20260504025023 | 7 | 275 | 6.4 | 11.3 | 0.00 | 0.00 | 0.00 | 54 | 1008.2 |
| 20260504024829 | 7 | 239 | 6.4 | 11.3 | 0.00 | 0.00 | 0.00 | 53 | 1008.3 |
| 20260504024537 | 7 | 255 | 6.4 | 12.9 | 0.00 | 0.00 | 0.00 | 53 | 1008.3 |
| 20260504024329 | 7 | 256 | 8.0 | 12.9 | 0.00 | 0.00 | 0.00 | 53 | 1008.2 |
| 20260504024022 | 7 | 249 | 6.4 | 14.5 | 0.00 | 0.00 | 0.00 | 53 | 1008.3 |
| 20260504023522 | 6 | 261 | 6.4 | 14.5 | 0.00 | 0.00 | 0.00 | 55 | 1008.3 |
| 20260504023329 | 6 | 259 | 6.4 | 14.5 | 0.00 | 0.00 | 0.00 | 56 | 1008.1 |
| 20260504023034 | 6 | 278 | 6.4 | 14.5 | 0.00 | 0.00 | 0.00 | 57 | 1008.4 |
| 20260504022828 | 6 | 275 | 6.4 | 9.7 | 0.00 | 0.00 | 0.00 | 58 | 1008.3 |
| 20260504022522 | 6 | 255 | 4.8 | 9.7 | 0.00 | 0.00 | 0.00 | 58 | 1008.5 |
| 20260504022329 | 6 | 264 | 6.4 | 8.0 | 0.00 | 0.00 | 0.00 | 60 | 1008.4 |
| 20260504022022 | 6 | 253 | 3.2 | 6.4 | 0.00 | 0.00 | 0.00 | 59 | 1008.5 |
| 20260504021540 | 5 | 273 | 4.8 | 6.4 | 0.00 | 0.00 | 0.00 | 58 | 1008.6 |
| 20260504021331 | 5 | 266 | 4.8 | 6.4 | 0.00 | 0.00 | 0.00 | 60 | 1008.4 |
| 20260504021034 | 5 | 270 | 3.2 | 9.7 | 0.00 | 0.00 | 0.00 | 61 | 1008.6 |
| 20260504020831 | 5 | 270 | 4.8 | 9.7 | 0.00 | 0.00 | 0.00 | 62 | 1008.4 |
| 20260504020522 | 5 | 278 | 3.2 | 9.7 | 0.00 | 0.00 | 0.00 | 62 | 1008.6 |
| 20260504020332 | 5 | 272 | 4.8 | 9.7 | 0.00 | 0.00 | 0.00 | 62 | 1008.4 |
| 20260504020041 | 5 | 292 | 4.8 | 9.7 | 0.00 | 0.00 | 0.00 | 62 | 1008.6 |
| 20260504015523 | 5 | 273 | 3.2 | 6.4 | 0.00 | 0.00 | 0.00 | 62 | 1008.6 |
| 20260504015330 | 5 | 282 | 4.8 | 6.4 | 0.00 | 0.00 | 0.00 | 62 | 1008.5 |
| 20260504015022 | 5 | 285 | 3.2 | 6.4 | 0.00 | 0.00 | 0.00 | 62 | 1008.6 |
| 20260504014830 | 5 | 289 | 3.2 | 6.4 | 0.00 | 0.00 | 0.00 | 61 | 1008.5 |
| 20260504014538 | 5 | 299 | 1.6 | 6.4 | 0.00 | 0.00 | 0.00 | 61 | 1008.7 |
| 20260504014330 | 6 | 295 | 3.2 | 6.4 | 0.00 | 0.00 | 0.00 | 59 | 1008.6 |
| 20260504014021 | 6 | 297 | 3.2 | 6.4 | 0.00 | 0.00 | 0.00 | 59 | 1008.7 |
| 20260504013829 | 6 | 289 | 3.2 | 6.4 | 0.00 | 0.00 | 0.00 | 60 | 1008.6 |
| 20260504013521 | 6 | 289 | 1.6 | 6.4 | 0.00 | 0.00 | 0.00 | 58 | 1008.7 |
| 20260504013330 | 6 | 295 | 1.6 | 6.4 | 0.00 | 0.00 | 0.00 | 58 | 1008.5 |
| 20260504013049 | 6 | 309 | 3.2 | 11.3 | 0.00 | 0.00 | 0.00 | 57 | 1008.7 |
| 20260504012829 | 6 | 285 | 3.2 | 9.7 | 0.00 | 0.00 | 0.00 | 57 | 1008.6 |
| 20260504012522 | 6 | 265 | 4.8 | 11.3 | 0.00 | 0.00 | 0.00 | 56 | 1008.7 |
| 20260504012329 | 6 | 276 | 4.8 | 9.7 | 0.00 | 0.05 | 0.00 | 57 | 1008.5 |
| 20260504012023 | 6 | 280 | 4.8 | 11.3 | 0.00 | 0.00 | 0.00 | 57 | 1008.6 |
| 20260504011830 | 6 | 287 | 3.2 | 9.7 | 0.00 | 0.05 | 0.00 | 60 | 1008.3 |
| 20260504011535 | 6 | 272 | 3.2 | 9.7 | 0.00 | 0.00 | 0.00 | 58 | 1008.4 |
| 20260504011329 | 6 | 268 | 4.8 | 9.7 | 0.00 | 0.05 | 0.00 | 58 | 1008.2 |
| 20260504011022 | 5 | 264 | 4.8 | 9.7 | 0.00 | 0.00 | 0.00 | 59 | 1008.4 |
| 20260504010828 | 6 | 274 | 4.8 | 6.4 | 0.00 | 0.05 | 0.00 | 62 | 1008.2 |
| 20260504010522 | 5 | 286 | 1.6 | 4.8 | 0.00 | 0.00 | 0.00 | 63 | 1008.5 |
| 20260504010329 | 6 | 297 | 3.2 | 4.8 | 0.00 | 0.05 | 0.00 | 63 | 1008.4 |
| 20260504010042 | 6 | 256 | 1.6 | 4.8 | 0.00 | 0.00 | 0.00 | 59 | 1008.5 |
| 20260504005829 | 6 | 245 | 3.2 | 4.8 | 0.00 | 0.05 | 0.00 | 59 | 1008.4 |
| 20260504005522 | 6 | 258 | 1.6 | 4.8 | 0.00 | 0.00 | 0.00 | 60 | 1008.4 |
| 20260504005329 | 6 | 258 | 3.2 | 4.8 | 0.00 | 0.05 | 0.00 | 61 | 1008.4 |
| 20260504005022 | 6 | 295 | 1.6 | 4.8 | 0.00 | 0.00 | 0.00 | 60 | 1008.5 |
| 20260504004831 | 6 | 293 | 3.2 | 4.8 | 0.00 | 0.05 | 0.00 | 60 | 1008.4 |
| 20260504004534 | 6 | 289 | 1.6 | 6.4 | 0.00 | 0.00 | 0.00 | 59 | 1008.3 |
| 20260504004022 | 6 | 286 | 1.6 | 6.4 | 0.00 | 0.00 | 0.00 | 58 | 1008.4 |
| 20260504003833 | 6 | 298 | 3.2 | 6.4 | 0.00 | 0.05 | 0.00 | 59 | 1008.3 |
| 20260504003523 | 6 | 275 | 3.2 | 6.4 | 0.00 | 0.00 | 0.00 | 57 | 1008.3 |
| 20260504003333 | 7 | 247 | 4.8 | 6.4 | 0.00 | 0.05 | 0.00 | 57 | 1008.2 |
| 20260504003035 | 7 | 270 | 3.2 | 6.4 | 0.00 | 0.00 | 0.00 | 55 | 1008.3 |
| 20260504002830 | 7 | 270 | 3.2 | 6.4 | 0.00 | 0.05 | 0.00 | 56 | 1008.2 |
| 20260504002522 | 7 | 270 | 3.2 | 6.4 | 0.00 | 0.00 | 0.00 | 55 | 1008.2 |
| 20260504002022 | 7 | 287 | 3.2 | 6.4 | 0.00 | 0.00 | 0.00 | 54 | 1008.3 |
| 20260504001829 | 8 | 287 | 3.2 | 4.8 | 0.00 | 0.05 | 0.00 | 54 | 1008.0 |
| 20260504001538 | 8 | 287 | 3.2 | 4.8 | 0.00 | 0.00 | 0.00 | 50 | 1008.1 |
| 20260504001329 | 8 | 291 | 3.2 | 4.8 | 0.00 | 0.05 | 0.00 | 50 | 1008.0 |
| 20260504001022 | 8 | 295 | 1.6 | 4.8 | 0.00 | 0.00 | 0.00 | 49 | 1008.1 |
| 20260504000829 | 8 | 299 | 3.2 | 4.8 | 0.00 | 0.05 | 0.00 | 49 | 1008.0 |
| 20260504000526 | 8 | 321 | 1.6 | 4.8 | 0.00 | 0.00 | 0.00 | 47 | 1008.2 |
| 20260504000035 | 9 | 321 | 1.6 | 4.8 | 0.00 | 0.00 | 0.00 | 46 | 1008.2 |
| 20260503235826 | 9 | 321 | 1.6 | 4.8 | 0.00 | 0.05 | 0.00 | 45 | 1008.2 |
| 20260503235521 | 9 | 341 | 3.2 | 6.4 | 0.00 | 0.00 | 0.00 | 42 | 1008.3 |
| 20260503235326 | 10 | 324 | 3.2 | 6.4 | 0.00 | 0.05 | 0.00 | 41 | 1008.0 |
| 20260503235022 | 9 | 314 | 1.6 | 9.7 | 0.00 | 0.00 | 0.00 | 45 | 1008.1 |
| 20260503234535 | 10 | 305 | 3.2 | 9.7 | 0.00 | 0.00 | 0.00 | 40 | 1008.2 |
| 20260503234323 | 10 | 305 | 4.8 | 8.0 | 0.00 | 0.05 | 0.00 | 43 | 1008.0 |
| 20260503234023 | 10 | 287 | 3.2 | 9.7 | 0.00 | 0.00 | 0.00 | 40 | 1008.0 |
| 20260503233824 | 10 | 311 | 1.6 | 4.8 | 0.00 | 0.05 | 0.00 | 44 | 1007.9 |
| 20260503233522 | 10 | 346 | 1.6 | 11.3 | 0.00 | 0.00 | 0.00 | 39 | 1008.1 |
| 20260503233323 | 11 | 297 | 0.0 | 11.3 | 0.00 | 0.05 | 0.00 | 42 | 1007.8 |
| 20260503233037 | 11 | 297 | 0.0 | 11.3 | 0.00 | 0.00 | 0.00 | 38 | 1007.9 |
| 20260503232820 | 11 | 297 | 1.6 | 11.3 | 0.00 | 0.05 | 0.00 | 37 | 1007.7 |
| 20260503232523 | 11 | 297 | 4.8 | 11.3 | 0.00 | 0.00 | 0.00 | 37 | 1007.7 |
| 20260503232320 | 11 | 322 | 4.8 | 11.3 | 0.00 | 0.05 | 0.00 | 36 | 1007.6 |
| 20260503232022 | 11 | 307 | 3.2 | 11.3 | 0.00 | 0.00 | 0.00 | 36 | 1007.8 |
| 20260503231819 | 11 | 351 | 6.4 | 11.3 | 0.00 | 0.05 | 0.00 | 36 | 1007.6 |
| 20260503231536 | 11 | 202 | 4.8 | 16.1 | 0.00 | 0.00 | 0.00 | 37 | 1007.7 |
| 20260503231318 | 11 | 273 | 3.2 | 16.1 | 0.00 | 0.05 | 0.00 | 35 | 1007.6 |
| 20260503231022 | 11 | 278 | 3.2 | 20.9 | 0.00 | 0.00 | 0.00 | 35 | 1007.7 |
| 20260503230816 | 11 | 272 | 3.2 | 20.9 | 0.00 | 0.05 | 0.00 | 36 | 1007.6 |
| 20260503230604 | 11 | 302 | 9.7 | 20.9 | 0.00 | 0.00 | 0.00 | 34 | 1007.6 |
| 20260503230041 | 11 | 334 | 12.9 | 20.9 | 0.00 | 0.00 | 0.00 | 34 | 1007.6 |
| 20260503225814 | 12 | 344 | 11.3 | 20.9 | 0.00 | 0.05 | 0.00 | 34 | 1007.5 |
| 20260503225521 | 11 | 322 | 11.3 | 17.7 | 0.00 | 0.00 | 0.00 | 34 | 1007.5 |
| 20260503225312 | 12 | 288 | 12.9 | 17.7 | 0.00 | 0.05 | 0.00 | 35 | 1007.5 |
| 20260503225022 | 11 | 299 | 9.7 | 17.7 | 0.00 | 0.00 | 0.00 | 36 | 1007.8 |
| 20260503224813 | 12 | 280 | 8.0 | 16.1 | 0.00 | 0.05 | 0.00 | 36 | 1007.6 |
| 20260503224533 | 11 | 281 | 9.7 | 16.1 | 0.00 | 0.00 | 0.00 | 35 | 1007.7 |
| 20260503224312 | 12 | 275 | 9.7 | 14.5 | 0.00 | 0.05 | 0.00 | 36 | 1007.6 |
| 20260503224023 | 11 | 300 | 6.4 | 14.5 | 0.00 | 0.00 | 0.00 | 37 | 1007.7 |
| 20260503223813 | 11 | 323 | 6.4 | 14.5 | 0.00 | 0.05 | 0.00 | 37 | 1007.7 |
| 20260503223522 | 11 | 347 | 3.2 | 14.5 | 0.00 | 0.00 | 0.00 | 37 | 1007.8 |
| 20260503223313 | 11 | 316 | 6.4 | 14.5 | 0.00 | 0.05 | 0.00 | 36 | 1007.7 |
| 20260503223035 | 11 | 310 | 6.4 | 14.5 | 0.00 | 0.00 | 0.00 | 36 | 1007.8 |
| 20260503222522 | 11 | 316 | 6.4 | 14.5 | 0.00 | 0.00 | 0.00 | 37 | 1007.8 |
| 20260503222312 | 11 | 316 | 8.0 | 14.5 | 0.00 | 0.05 | 0.00 | 39 | 1007.7 |
| 20260503222022 | 11 | 328 | 4.8 | 9.7 | 0.00 | 0.00 | 0.00 | 38 | 1007.9 |
| 20260503221811 | 11 | 347 | 4.8 | 8.0 | 0.00 | 0.05 | 0.00 | 37 | 1007.8 |
| 20260503221542 | 11 | 201 | 0.0 | 16.1 | 0.00 | 0.00 | 0.00 | 37 | 1007.9 |
| 20260503221312 | 11 | 291 | 1.6 | 14.5 | 0.00 | 0.05 | 0.00 | 38 | 1007.9 |
| 20260503221022 | 11 | 312 | 4.8 | 19.3 | 0.00 | 0.00 | 0.00 | 38 | 1008.0 |
| 20260503220810 | 11 | 311 | 4.8 | 19.3 | 0.00 | 0.05 | 0.00 | 38 | 1007.8 |
| 20260503220524 | 11 | 282 | 11.3 | 22.5 | 0.00 | 0.00 | 0.00 | 36 | 1007.9 |
| 20260503220310 | 11 | 288 | 12.9 | 20.9 | 0.00 | 0.05 | 0.00 | 37 | 1007.9 |
| 20260503220039 | 11 | 275 | 12.9 | 22.5 | 0.00 | 0.00 | 0.00 | 36 | 1007.9 |
| 20260503215522 | 11 | 297 | 6.4 | 16.1 | 0.00 | 0.00 | 0.00 | 37 | 1007.8 |
| 20260503215310 | 12 | 238 | 8.0 | 22.5 | 0.00 | 0.05 | 0.00 | 37 | 1007.7 |
| 20260503215023 | 11 | 277 | 6.4 | 24.1 | 0.00 | 0.00 | 0.00 | 36 | 1007.7 |
| 20260503214812 | 12 | 279 | 6.4 | 22.5 | 0.00 | 0.05 | 0.00 | 37 | 1007.6 |
| 20260503214540 | 11 | 297 | 12.9 | 24.1 | 0.00 | 0.00 | 0.00 | 37 | 1007.7 |
| 20260503214306 | 12 | 331 | 12.9 | 19.3 | 0.00 | 0.05 | 0.00 | 37 | 1007.6 |
| 20260503214026 | 11 | 324 | 11.3 | 19.3 | 0.00 | 0.00 | 0.00 | 36 | 1007.7 |
| 20260503213522 | 11 | 302 | 3.2 | 17.7 | 0.00 | 0.00 | 0.00 | 37 | 1007.7 |
| 20260503213304 | 12 | 358 | 9.7 | 17.7 | 0.00 | 0.05 | 0.00 | 37 | 1007.4 |
| 20260503213042 | 11 | 296 | 6.4 | 16.1 | 0.00 | 0.00 | 0.00 | 36 | 1007.6 |
| 20260503212803 | 11 | 271 | 4.8 | 16.1 | 0.00 | 0.05 | 0.00 | 37 | 1007.6 |
| 20260503212525 | 11 | 342 | 4.8 | 20.9 | 0.00 | 0.00 | 0.00 | 35 | 1007.5 |
| 20260503212304 | 12 | 314 | 4.8 | 20.9 | 0.00 | 0.05 | 0.00 | 37 | 1007.5 |
| 20260503212022 | 11 | 275 | 6.4 | 25.7 | 0.00 | 0.00 | 0.00 | 37 | 1007.6 |
| 20260503211803 | 11 | 327 | 12.9 | 25.7 | 0.00 | 0.05 | 0.00 | 36 | 1007.5 |
| 20260503211535 | 11 | 341 | 12.9 | 25.7 | 0.00 | 0.00 | 0.00 | 36 | 1007.7 |
| 20260503211021 | 11 | 276 | 11.3 | 22.5 | 0.00 | 0.00 | 0.00 | 36 | 1007.6 |
| 20260503210802 | 11 | 310 | 9.7 | 22.5 | 0.00 | 0.05 | 0.00 | 37 | 1007.4 |
| 20260503210521 | 11 | 323 | 9.7 | 24.1 | 0.00 | 0.00 | 0.00 | 37 | 1007.5 |
| 20260503210303 | 12 | 324 | 11.3 | 24.1 | 0.00 | 0.05 | 0.00 | 37 | 1007.4 |
| 20260503210039 | 11 | 245 | 9.7 | 24.1 | 0.00 | 0.00 | 0.00 | 36 | 1007.5 |
| 20260503205804 | 11 | 279 | 17.7 | 24.1 | 0.00 | 0.05 | 0.00 | 37 | 1007.4 |
| 20260503205522 | 11 | 295 | 6.4 | 17.7 | 0.00 | 0.03 | 0.00 | 36 | 1007.4 |
| 20260503205304 | 12 | 347 | 6.4 | 14.5 | 0.00 | 0.05 | 0.00 | 37 | 1007.3 |
| 20260503205022 | 11 | 324 | 1.6 | 16.1 | 0.00 | 0.03 | 0.00 | 38 | 1007.6 |
| 20260503204541 | 11 | 297 | 6.4 | 16.1 | 0.00 | 0.03 | 0.00 | 37 | 1007.6 |
| 20260503204305 | 11 | 78 | 11.3 | 16.1 | 0.00 | 0.05 | 0.00 | 38 | 1007.4 |
| 20260503204021 | 11 | 317 | 8.0 | 16.1 | 0.00 | 0.03 | 0.00 | 36 | 1007.6 |
| 20260503203805 | 11 | 243 | 6.4 | 16.1 | 0.00 | 0.05 | 0.00 | 36 | 1007.5 |
| 20260503203526 | 11 | 282 | 6.4 | 19.3 | 0.00 | 0.03 | 0.00 | 36 | 1007.6 |
| 20260503203304 | 11 | 261 | 6.4 | 25.7 | 0.00 | 0.05 | 0.00 | 37 | 1007.5 |
| 20260503203041 | 11 | 269 | 11.3 | 30.6 | 0.00 | 0.03 | 0.00 | 35 | 1007.7 |
| 20260503202804 | 12 | 238 | 9.7 | 30.6 | 0.00 | 0.05 | 0.00 | 37 | 1007.6 |
| 20260503202523 | 11 | 249 | 17.7 | 30.6 | 0.00 | 0.03 | 0.00 | 36 | 1007.6 |
| 20260503202306 | 12 | 330 | 16.1 | 30.6 | 0.00 | 0.05 | 0.00 | 35 | 1007.6 |
| 20260503202022 | 11 | 324 | 11.3 | 20.9 | 0.00 | 0.03 | 0.00 | 36 | 1007.7 |
| 20260503201803 | 12 | 290 | 11.3 | 19.3 | 0.00 | 0.05 | 0.00 | 36 | 1007.7 |
| 20260503201538 | 11 | 262 | 9.7 | 22.5 | 0.00 | 0.03 | 0.00 | 36 | 1007.7 |
| 20260503201302 | 12 | 254 | 9.7 | 22.5 | 0.00 | 0.05 | 0.00 | 37 | 1007.7 |
| 20260503201022 | 12 | 282 | 9.7 | 22.5 | 0.00 | 0.03 | 0.00 | 37 | 1007.8 |
| 20260503200803 | 12 | 299 | 14.5 | 22.5 | 0.00 | 0.05 | 0.00 | 37 | 1007.7 |
| 20260503200522 | 11 | 287 | 9.7 | 20.9 | 0.00 | 0.03 | 0.00 | 40 | 1007.7 |
| 20260503200329 | 11 | 243 | 14.5 | 19.3 | 0.00 | 0.05 | 0.00 | 37 | 1007.7 |
| 20260503200036 | 11 | 257 | 11.3 | 19.3 | 0.00 | 0.03 | 0.00 | 38 | 1007.7 |
| 20260503195801 | 11 | 237 | 6.4 | 16.1 | 0.00 | 0.05 | 0.00 | 38 | 1007.8 |
| 20260503195522 | 11 | 270 | 9.7 | 20.9 | 0.00 | 0.05 | 0.00 | 38 | 1007.9 |
| 20260503195304 | 11 | 305 | 8.0 | 17.7 | 0.00 | 0.05 | 0.00 | 39 | 1007.8 |
| 20260503195022 | 11 | 252 | 9.7 | 20.9 | 0.00 | 0.05 | 0.00 | 39 | 1008.0 |
| 20260503194802 | 11 | 270 | 11.3 | 17.7 | 0.00 | 0.05 | 0.00 | 40 | 1008.0 |
| 20260503194540 | 11 | 315 | 3.2 | 11.3 | 0.00 | 0.05 | 0.00 | 40 | 1008.1 |
| 20260503194303 | 11 | 312 | 3.2 | 9.7 | 0.00 | 0.05 | 0.00 | 43 | 1008.0 |
| 20260503194023 | 10 | 280 | 3.2 | 12.9 | 0.00 | 0.05 | 0.00 | 40 | 1008.1 |
| 20260503193801 | 11 | 242 | 4.8 | 12.9 | 0.00 | 0.05 | 0.00 | 42 | 1008.0 |
| 20260503193523 | 10 | 11 | 6.4 | 12.9 | 0.00 | 0.05 | 0.00 | 40 | 1008.1 |
| 20260503193321 | 10 | 26 | 6.4 | 12.9 | 0.00 | 0.05 | 0.00 | 43 | 1008.0 |
| 20260503193043 | 10 | 330 | 6.4 | 12.9 | 0.00 | 0.05 | 0.00 | 42 | 1008.1 |
| 20260503192804 | 10 | 12 | 4.8 | 12.9 | 0.00 | 0.05 | 0.00 | 42 | 1008.1 |
| 20260503192521 | 10 | 4 | 6.4 | 16.1 | 0.00 | 0.05 | 0.00 | 42 | 1008.2 |
| 20260503192305 | 11 | 10 | 9.7 | 16.1 | 0.00 | 0.05 | 0.00 | 42 | 1008.1 |
| 20260503192021 | 10 | 358 | 4.8 | 17.7 | 0.00 | 0.05 | 0.00 | 41 | 1008.3 |
| 20260503191805 | 10 | 330 | 11.3 | 16.1 | 0.00 | 0.05 | 0.00 | 40 | 1008.2 |
| 20260503191603 | 10 | 312 | 9.7 | 17.7 | 0.00 | 0.05 | 0.00 | 41 | 1008.3 |
| 20260503191304 | 10 | 330 | 1.6 | 17.7 | 0.00 | 0.05 | 0.00 | 42 | 1008.3 |
| 20260503191021 | 10 | 287 | 6.4 | 22.5 | 0.00 | 0.05 | 0.00 | 41 | 1008.3 |
| 20260503190804 | 10 | 335 | 4.8 | 20.9 | 0.00 | 0.05 | 0.00 | 42 | 1008.3 |
| 20260503190525 | 10 | 282 | 9.7 | 22.5 | 0.00 | 0.05 | 0.00 | 43 | 1008.5 |
| 20260503190317 | 10 | 302 | 12.9 | 20.9 | 0.00 | 0.05 | 0.00 | 41 | 1008.3 |
| 20260503190039 | 10 | 297 | 11.3 | 19.3 | 0.00 | 0.05 | 0.00 | 41 | 1008.4 |
| 20260503185805 | 10 | 320 | 16.1 | 19.3 | 0.00 | 0.05 | 0.00 | 42 | 1008.4 |
| 20260503185525 | 10 | 314 | 9.7 | 30.6 | 0.00 | 0.05 | 0.00 | 42 | 1008.5 |
| 20260503185305 | 10 | 278 | 8.0 | 30.6 | 0.00 | 0.05 | 0.00 | 41 | 1008.4 |
| 20260503185021 | 10 | 266 | 11.3 | 30.6 | 0.00 | 0.05 | 0.00 | 42 | 1008.6 |
| 20260503184805 | 10 | 266 | 17.7 | 30.6 | 0.00 | 0.05 | 0.00 | 41 | 1008.4 |
| 20260503184537 | 10 | 266 | 14.5 | 24.1 | 0.00 | 0.05 | 0.00 | 40 | 1008.7 |
| 20260503184305 | 10 | 248 | 8.0 | 19.3 | 0.00 | 0.05 | 0.00 | 41 | 1008.4 |
| 20260503184022 | 10 | 275 | 9.7 | 20.9 | 0.00 | 0.05 | 0.00 | 39 | 1008.6 |
| 20260503183800 | 11 | 239 | 8.0 | 19.3 | 0.00 | 0.05 | 0.00 | 43 | 1008.5 |
| 20260503183525 | 10 | 322 | 6.4 | 24.1 | 0.00 | 0.05 | 0.00 | 42 | 1008.5 |
| 20260503183035 | 10 | 235 | 11.3 | 32.2 | 0.00 | 0.05 | 0.00 | 43 | 1008.6 |
| 20260503182758 | 10 | 287 | 14.5 | 30.6 | 0.00 | 0.05 | 0.00 | 41 | 1008.5 |
| 20260503182521 | 10 | 318 | 19.3 | 32.2 | 0.00 | 0.05 | 0.00 | 42 | 1008.8 |
| 20260503182300 | 10 | 335 | 9.7 | 30.6 | 0.00 | 0.05 | 0.00 | 42 | 1008.7 |
| 20260503182021 | 10 | 273 | 8.0 | 24.1 | 0.00 | 0.05 | 0.00 | 43 | 1008.9 |
| 20260503181801 | 10 | 339 | 14.5 | 24.1 | 0.00 | 0.05 | 0.00 | 45 | 1008.9 |
| 20260503181546 | 10 | 317 | 14.5 | 24.1 | 0.00 | 0.05 | 0.00 | 43 | 1008.9 |
| 20260503181256 | 10 | 321 | 8.0 | 20.9 | 0.00 | 0.05 | 0.00 | 46 | 1008.7 |
| 20260503181022 | 10 | 335 | 8.0 | 20.9 | 0.00 | 0.05 | 0.00 | 43 | 1009.0 |
| 20260503180756 | 10 | 276 | 14.5 | 20.9 | 0.00 | 0.05 | 0.00 | 45 | 1008.7 |
| 20260503180522 | 10 | 339 | 14.5 | 20.9 | 0.00 | 0.05 | 0.00 | 43 | 1008.8 |
| 20260503180258 | 10 | 330 | 9.7 | 19.3 | 0.00 | 0.05 | 0.00 | 43 | 1008.8 |
| 20260503180033 | 10 | 286 | 9.7 | 24.1 | 0.00 | 0.05 | 0.00 | 43 | 1008.9 |
| 20260503175521 | 10 | 258 | 9.7 | 24.1 | 0.00 | 0.05 | 0.00 | 44 | 1008.9 |
| 20260503175251 | 10 | 312 | 11.3 | 24.1 | 0.00 | 0.05 | 0.00 | 44 | 1008.8 |
| 20260503175021 | 10 | 307 | 9.7 | 24.1 | 0.00 | 0.05 | 0.00 | 47 | 1008.9 |
| 20260503174749 | 10 | 326 | 11.3 | 24.1 | 0.00 | 0.05 | 0.00 | 44 | 1008.8 |
| 20260503174544 | 10 | 292 | 16.1 | 24.1 | 0.00 | 0.05 | 0.00 | 45 | 1008.9 |
| 20260503174246 | 10 | 343 | 14.5 | 22.5 | 0.00 | 0.05 | 0.00 | 45 | 1008.8 |
| 20260503174022 | 10 | 291 | 9.7 | 22.5 | 0.00 | 0.05 | 0.00 | 45 | 1009.0 |
| 20260503173521 | 10 | 328 | 11.3 | 20.9 | 0.00 | 0.05 | 0.00 | 45 | 1009.1 |
| 20260503173245 | 10 | 320 | 8.0 | 17.7 | 0.00 | 0.05 | 0.00 | 46 | 1009.0 |
| 20260503173038 | 9 | 268 | 11.3 | 20.9 | 0.00 | 0.05 | 0.00 | 46 | 1009.1 |
| 20260503172742 | 10 | 330 | 14.5 | 19.3 | 0.00 | 0.05 | 0.00 | 46 | 1008.9 |
| 20260503172521 | 10 | 318 | 11.3 | 20.9 | 0.00 | 0.05 | 0.00 | 46 | 1009.1 |
| 20260503172243 | 10 | 255 | 11.3 | 19.3 | 0.00 | 0.05 | 0.00 | 44 | 1009.1 |
| 20260503172022 | 10 | 255 | 8.0 | 24.1 | 0.00 | 0.05 | 0.00 | 43 | 1009.1 |
| 20260503171741 | 10 | 275 | 6.4 | 20.9 | 0.00 | 0.05 | 0.00 | 44 | 1009.0 |
| 20260503171536 | 9 | 307 | 6.4 | 24.1 | 0.00 | 0.05 | 0.00 | 45 | 1009.1 |
| 20260503171240 | 10 | 270 | 14.5 | 20.9 | 0.00 | 0.05 | 0.00 | 43 | 1009.0 |
| 20260503171022 | 9 | 272 | 12.9 | 25.7 | 0.00 | 0.05 | 0.00 | 43 | 1009.1 |
| 20260503170524 | 9 | 8 | 14.5 | 25.7 | 0.00 | 0.05 | 0.00 | 44 | 1009.1 |
| 20260503170239 | 9 | 318 | 14.5 | 24.1 | 0.00 | 0.05 | 0.00 | 45 | 1009.0 |
| 20260503150735 | 9 | 322 | 12.9 | 19.3 | 0.00 | 0.05 | 0.00 | 46 | 1009.9 |
| 20260503150521 | 8 | 26 | 11.3 | 17.7 | 0.00 | 0.05 | 0.00 | 46 | 1009.9 |
| 20260503150231 | 9 | 280 | 6.4 | 17.7 | 0.00 | 0.05 | 0.00 | 47 | 1009.8 |
| 20260503140229 | 9 | 332 | 12.9 | 24.1 | 0.00 | 0.05 | 0.00 | 50 | 1010.0 |
| 20260503131230 | 6 | 45 | 8.0 | 19.3 | 0.00 | 0.05 | 0.00 | 79 | 1010.4 |
| 20260503131022 | 6 | 36 | 11.3 | 20.9 | 0.00 | 0.05 | 0.00 | 79 | 1010.6 |
| 20260503130727 | 6 | 58 | 14.5 | 19.3 | 0.00 | 0.05 | 0.00 | 78 | 1010.4 |
| 20260503130522 | 6 | 52 | 12.9 | 20.9 | 0.00 | 0.05 | 0.00 | 77 | 1010.5 |
| 20260503130227 | 6 | 31 | 6.4 | 19.3 | 0.00 | 0.05 | 0.00 | 78 | 1010.4 |
| 20260503120212 | 6 | 45 | 4.8 | 6.4 | 0.00 | 0.05 | 0.00 | 82 | 1010.5 |
| 20260503110706 | 5 | 291 | 3.2 | 3.2 | 0.00 | 0.08 | 0.00 | 89 | 1010.6 |
| 20260503110523 | 5 | 291 | 1.6 | 3.2 | 0.00 | 0.08 | 0.00 | 89 | 1010.7 |
| 20260503100146 | 4 | 291 | 1.6 | 3.2 | 0.00 | 0.08 | 0.00 | 88 | 1010.3 |